sensor_id;sensor_type;location;lat;lon;timestamp;temperature;humidity
16076;DHT22;8142;48.242;11.644;2023-08-01T00:00:04;19.90;99.90
16076;DHT22;8142;48.242;11.644;2023-08-01T00:02:33;19.90;99.90
16076;DHT22;8142;48.242;11.644;2023-08-01T00:04:59;19.80;99.90
16076;DHT22;8142;48.242;11.644;2023-08-01T00:07:27;19.70;99.90
16076;DHT22;8142;48.242;11.644;2023-08-01T00:09:53;19.50;99.90
16076;DHT22;8142;48.242;11.644;2023-08-01T00:12:19;19.40;99.90
16076;DHT22;8142;48.242;11.644;2023-08-01T00:14:45;19.20;99.90
16076;DHT22;8142;48.242;11.644;2023-08-01T00:17:11;19.00;99.90
16076;DHT22;8142;48.242;11.644;2023-08-01T00:19:37;18.90;99.90
16076;DHT22;8142;48.242;11.644;2023-08-01T00:22:03;18.80;99.90
16076;DHT22;8142;48.242;11.644;2023-08-01T00:24:29;18.90;99.90
16076;DHT22;8142;48.242;11.644;2023-08-01T00:26:55;18.90;99.90
16076;DHT22;8142;48.242;11.644;2023-08-01T00:29:23;18.90;99.90
16076;DHT22;8142;48.242;11.644;2023-08-01T00:31:49;19.00;99.90
16076;DHT22;8142;48.242;11.644;2023-08-01T00:34:15;19.00;99.90
16076;DHT22;8142;48.242;11.644;2023-08-01T00:36:40;19.00;99.90
16076;DHT22;8142;48.242;11.644;2023-08-01T00:39:06;19.10;99.90
16076;DHT22;8142;48.242;11.644;2023-08-01T00:41:32;19.10;99.90
16076;DHT22;8142;48.242;11.644;2023-08-01T00:43:58;19.10;99.90
16076;DHT22;8142;48.242;11.644;2023-08-01T00:46:24;19.20;99.90
16076;DHT22;8142;48.242;11.644;2023-08-01T00:48:50;19.20;99.90
16076;DHT22;8142;48.242;11.644;2023-08-01T00:51:16;19.20;99.90
16076;DHT22;8142;48.242;11.644;2023-08-01T00:53:43;19.20;99.90
16076;DHT22;8142;48.242;11.644;2023-08-01T00:56:11;19.30;99.90
16076;DHT22;8142;48.242;11.644;2023-08-01T00:58:37;19.30;99.90
16076;DHT22;8142;48.242;11.644;2023-08-01T01:01:03;19.40;99.90
16076;DHT22;8142;48.242;11.644;2023-08-01T01:03:29;19.40;99.90
16076;DHT22;8142;48.242;11.644;2023-08-01T01:06:24;19.40;99.90
16076;DHT22;8142;48.242;11.644;2023-08-01T01:08:50;19.40;99.90
16076;DHT22;8142;48.242;11.644;2023-08-01T01:11:16;19.50;99.90
16076;DHT22;8142;48.242;11.644;2023-08-01T01:13:42;19.50;99.90
16076;DHT22;8142;48.242;11.644;2023-08-01T01:16:08;19.50;99.90
16076;DHT22;8142;48.242;11.644;2023-08-01T01:18:34;19.60;99.90
16076;DHT22;8142;48.242;11.644;2023-08-01T01:21:00;19.50;99.90
16076;DHT22;8142;48.242;11.644;2023-08-01T01:23:27;19.60;99.90
16076;DHT22;8142;48.242;11.644;2023-08-01T01:25:53;19.60;99.90
16076;DHT22;8142;48.242;11.644;2023-08-01T01:28:20;19.60;99.90
16076;DHT22;8142;48.242;11.644;2023-08-01T01:30:48;19.60;99.90
16076;DHT22;8142;48.242;11.644;2023-08-01T01:33:15;19.60;99.90
16076;DHT22;8142;48.242;11.644;2023-08-01T01:35:41;19.60;99.90
16076;DHT22;8142;48.242;11.644;2023-08-01T01:38:08;19.60;99.90
16076;DHT22;8142;48.242;11.644;2023-08-01T01:40:34;19.60;99.90
16076;DHT22;8142;48.242;11.644;2023-08-01T01:43:01;19.60;99.90
16076;DHT22;8142;48.242;11.644;2023-08-01T01:45:27;19.60;99.90
16076;DHT22;8142;48.242;11.644;2023-08-01T01:47:53;19.60;99.90
16076;DHT22;8142;48.242;11.644;2023-08-01T01:50:19;19.60;99.90
16076;DHT22;8142;48.242;11.644;2023-08-01T01:52:45;19.70;99.90
16076;DHT22;8142;48.242;11.644;2023-08-01T01:55:11;19.70;99.90
16076;DHT22;8142;48.242;11.644;2023-08-01T01:57:37;19.70;99.90
16076;DHT22;8142;48.242;11.644;2023-08-01T02:00:07;19.70;99.90
16076;DHT22;8142;48.242;11.644;2023-08-01T02:02:36;19.70;99.90
16076;DHT22;8142;48.242;11.644;2023-08-01T02:05:02;19.70;99.90
16076;DHT22;8142;48.242;11.644;2023-08-01T02:07:30;19.70;99.90
16076;DHT22;8142;48.242;11.644;2023-08-01T02:09:56;19.70;99.90
16076;DHT22;8142;48.242;11.644;2023-08-01T02:12:21;19.70;99.90
16076;DHT22;8142;48.242;11.644;2023-08-01T02:14:47;19.70;99.90
16076;DHT22;8142;48.242;11.644;2023-08-01T02:17:13;19.60;99.90
16076;DHT22;8142;48.242;11.644;2023-08-01T02:19:39;19.60;99.90
16076;DHT22;8142;48.242;11.644;2023-08-01T02:22:05;19.60;99.90
16076;DHT22;8142;48.242;11.644;2023-08-01T02:24:30;19.60;99.90
16076;DHT22;8142;48.242;11.644;2023-08-01T02:26:56;19.60;99.90
16076;DHT22;8142;48.242;11.644;2023-08-01T02:29:22;19.60;99.90
16076;DHT22;8142;48.242;11.644;2023-08-01T02:31:48;19.50;99.90
16076;DHT22;8142;48.242;11.644;2023-08-01T02:34:16;19.60;99.90
16076;DHT22;8142;48.242;11.644;2023-08-01T02:36:42;19.50;99.90
16076;DHT22;8142;48.242;11.644;2023-08-01T02:39:08;19.50;99.90
16076;DHT22;8142;48.242;11.644;2023-08-01T02:41:34;19.50;99.90
16076;DHT22;8142;48.242;11.644;2023-08-01T02:44:00;19.50;99.90
16076;DHT22;8142;48.242;11.644;2023-08-01T02:46:25;19.50;99.90
16076;DHT22;8142;48.242;11.644;2023-08-01T02:48:54;19.50;99.90
16076;DHT22;8142;48.242;11.644;2023-08-01T02:51:20;19.50;99.90
16076;DHT22;8142;48.242;11.644;2023-08-01T02:53:45;19.50;99.90
16076;DHT22;8142;48.242;11.644;2023-08-01T02:56:11;19.40;99.90
16076;DHT22;8142;48.242;11.644;2023-08-01T02:58:37;19.40;99.90
16076;DHT22;8142;48.242;11.644;2023-08-01T03:01:07;19.40;99.90
16076;DHT22;8142;48.242;11.644;2023-08-01T03:03:35;19.40;99.90
16076;DHT22;8142;48.242;11.644;2023-08-01T03:06:03;19.40;99.90
16076;DHT22;8142;48.242;11.644;2023-08-01T03:08:29;19.40;99.90
16076;DHT22;8142;48.242;11.644;2023-08-01T03:10:54;19.40;99.90
16076;DHT22;8142;48.242;11.644;2023-08-01T03:13:21;19.40;99.90
16076;DHT22;8142;48.242;11.644;2023-08-01T03:15:46;19.40;99.90
16076;DHT22;8142;48.242;11.644;2023-08-01T03:18:12;19.50;99.90
16076;DHT22;8142;48.242;11.644;2023-08-01T03:20:38;19.50;99.90
16076;DHT22;8142;48.242;11.644;2023-08-01T03:23:04;19.50;99.90
16076;DHT22;8142;48.242;11.644;2023-08-01T03:25:30;19.40;99.90
16076;DHT22;8142;48.242;11.644;2023-08-01T03:27:56;19.50;99.90
16076;DHT22;8142;48.242;11.644;2023-08-01T03:30:22;19.50;99.90
16076;DHT22;8142;48.242;11.644;2023-08-01T03:32:48;19.40;99.90
16076;DHT22;8142;48.242;11.644;2023-08-01T03:35:14;19.50;99.90
16076;DHT22;8142;48.242;11.644;2023-08-01T03:37:40;19.40;99.90
16076;DHT22;8142;48.242;11.644;2023-08-01T03:40:07;19.40;99.90
16076;DHT22;8142;48.242;11.644;2023-08-01T03:42:35;19.40;99.90
16076;DHT22;8142;48.242;11.644;2023-08-01T03:45:01;19.40;99.90
16076;DHT22;8142;48.242;11.644;2023-08-01T03:47:26;19.40;99.90
16076;DHT22;8142;48.242;11.644;2023-08-01T03:49:52;19.40;99.90
16076;DHT22;8142;48.242;11.644;2023-08-01T03:52:18;19.40;99.90
16076;DHT22;8142;48.242;11.644;2023-08-01T03:54:45;19.40;99.90
16076;DHT22;8142;48.242;11.644;2023-08-01T03:57:11;19.40;99.90
16076;DHT22;8142;48.242;11.644;2023-08-01T03:59:37;19.40;99.90
16076;DHT22;8142;48.242;11.644;2023-08-01T04:02:03;19.40;99.90
16076;DHT22;8142;48.242;11.644;2023-08-01T04:04:29;19.30;99.90
16076;DHT22;8142;48.242;11.644;2023-08-01T04:06:56;19.30;99.90
16076;DHT22;8142;48.242;11.644;2023-08-01T04:09:22;19.30;99.90
16076;DHT22;8142;48.242;11.644;2023-08-01T04:11:48;19.30;99.90
16076;DHT22;8142;48.242;11.644;2023-08-01T04:14:14;19.30;99.90
16076;DHT22;8142;48.242;11.644;2023-08-01T04:16:40;19.30;99.90
16076;DHT22;8142;48.242;11.644;2023-08-01T04:19:06;19.20;99.90
16076;DHT22;8142;48.242;11.644;2023-08-01T04:21:32;19.20;99.90
16076;DHT22;8142;48.242;11.644;2023-08-01T04:23:57;19.20;99.90
16076;DHT22;8142;48.242;11.644;2023-08-01T04:26:23;19.20;99.90
16076;DHT22;8142;48.242;11.644;2023-08-01T04:28:49;19.20;99.90
16076;DHT22;8142;48.242;11.644;2023-08-01T04:31:15;19.20;99.90
16076;DHT22;8142;48.242;11.644;2023-08-01T04:33:41;19.20;99.90
16076;DHT22;8142;48.242;11.644;2023-08-01T04:36:07;19.20;99.90
16076;DHT22;8142;48.242;11.644;2023-08-01T04:38:32;19.10;99.90
16076;DHT22;8142;48.242;11.644;2023-08-01T04:40:58;19.20;99.90
16076;DHT22;8142;48.242;11.644;2023-08-01T04:43:24;19.10;99.90
16076;DHT22;8142;48.242;11.644;2023-08-01T04:45:50;19.10;99.90
16076;DHT22;8142;48.242;11.644;2023-08-01T04:48:16;19.10;99.90
16076;DHT22;8142;48.242;11.644;2023-08-01T04:50:42;19.00;99.90
16076;DHT22;8142;48.242;11.644;2023-08-01T04:53:08;19.00;99.90
16076;DHT22;8142;48.242;11.644;2023-08-01T04:55:33;19.00;99.90
16076;DHT22;8142;48.242;11.644;2023-08-01T04:57:59;19.00;99.90
16076;DHT22;8142;48.242;11.644;2023-08-01T05:00:25;18.90;99.90
16076;DHT22;8142;48.242;11.644;2023-08-01T05:02:51;19.00;99.90
16076;DHT22;8142;48.242;11.644;2023-08-01T05:05:17;18.90;99.90
16076;DHT22;8142;48.242;11.644;2023-08-01T05:07:43;18.90;99.90
16076;DHT22;8142;48.242;11.644;2023-08-01T05:10:10;18.90;99.90
16076;DHT22;8142;48.242;11.644;2023-08-01T05:12:36;18.90;99.90
16076;DHT22;8142;48.242;11.644;2023-08-01T05:15:01;18.90;99.90
16076;DHT22;8142;48.242;11.644;2023-08-01T05:17:28;18.80;99.90
16076;DHT22;8142;48.242;11.644;2023-08-01T05:19:54;18.80;99.90
16076;DHT22;8142;48.242;11.644;2023-08-01T05:22:21;18.90;99.90
16076;DHT22;8142;48.242;11.644;2023-08-01T05:24:47;18.80;99.90
16076;DHT22;8142;48.242;11.644;2023-08-01T05:27:12;18.80;99.90
16076;DHT22;8142;48.242;11.644;2023-08-01T05:29:38;18.80;99.90
16076;DHT22;8142;48.242;11.644;2023-08-01T05:32:04;18.80;99.90
16076;DHT22;8142;48.242;11.644;2023-08-01T05:34:30;18.80;99.90
16076;DHT22;8142;48.242;11.644;2023-08-01T05:36:56;18.80;99.90
16076;DHT22;8142;48.242;11.644;2023-08-01T05:39:21;18.80;99.90
16076;DHT22;8142;48.242;11.644;2023-08-01T05:41:47;18.80;99.90
16076;DHT22;8142;48.242;11.644;2023-08-01T05:44:13;18.80;99.90
16076;DHT22;8142;48.242;11.644;2023-08-01T05:46:39;18.80;99.90
16076;DHT22;8142;48.242;11.644;2023-08-01T05:49:05;18.80;99.90
16076;DHT22;8142;48.242;11.644;2023-08-01T05:51:31;18.90;99.90
16076;DHT22;8142;48.242;11.644;2023-08-01T05:53:57;18.90;99.90
16076;DHT22;8142;48.242;11.644;2023-08-01T05:56:22;18.90;99.90
16076;DHT22;8142;48.242;11.644;2023-08-01T05:58:48;18.90;99.90
16076;DHT22;8142;48.242;11.644;2023-08-01T06:01:16;18.90;99.90
16076;DHT22;8142;48.242;11.644;2023-08-01T06:03:42;18.90;99.90
16076;DHT22;8142;48.242;11.644;2023-08-01T06:06:08;18.90;99.90
16076;DHT22;8142;48.242;11.644;2023-08-01T06:08:34;18.80;99.90
16076;DHT22;8142;48.242;11.644;2023-08-01T06:11:00;18.90;99.90
16076;DHT22;8142;48.242;11.644;2023-08-01T06:13:26;18.90;99.90
16076;DHT22;8142;48.242;11.644;2023-08-01T06:15:52;18.90;99.90
16076;DHT22;8142;48.242;11.644;2023-08-01T06:18:18;19.00;99.90
16076;DHT22;8142;48.242;11.644;2023-08-01T06:20:44;19.00;99.90
16076;DHT22;8142;48.242;11.644;2023-08-01T06:23:10;19.00;99.90
16076;DHT22;8142;48.242;11.644;2023-08-01T06:25:36;19.00;99.90
16076;DHT22;8142;48.242;11.644;2023-08-01T06:28:01;19.10;99.90
16076;DHT22;8142;48.242;11.644;2023-08-01T06:30:27;19.10;99.90
16076;DHT22;8142;48.242;11.644;2023-08-01T06:32:53;19.10;99.90
16076;DHT22;8142;48.242;11.644;2023-08-01T06:35:19;19.10;99.90
16076;DHT22;8142;48.242;11.644;2023-08-01T06:37:46;19.10;99.90
16076;DHT22;8142;48.242;11.644;2023-08-01T06:40:12;19.20;99.90
16076;DHT22;8142;48.242;11.644;2023-08-01T06:42:38;19.10;99.90
16076;DHT22;8142;48.242;11.644;2023-08-01T06:45:04;19.20;99.90
16076;DHT22;8142;48.242;11.644;2023-08-01T06:47:30;19.30;99.90
16076;DHT22;8142;48.242;11.644;2023-08-01T06:49:56;19.30;99.90
16076;DHT22;8142;48.242;11.644;2023-08-01T06:52:22;19.30;99.90
16076;DHT22;8142;48.242;11.644;2023-08-01T06:54:48;19.30;99.90
16076;DHT22;8142;48.242;11.644;2023-08-01T06:57:14;19.40;99.90
16076;DHT22;8142;48.242;11.644;2023-08-01T06:59:39;19.40;99.90
16076;DHT22;8142;48.242;11.644;2023-08-01T07:02:05;19.60;99.90
16076;DHT22;8142;48.242;11.644;2023-08-01T07:04:32;19.70;99.90
16076;DHT22;8142;48.242;11.644;2023-08-01T07:06:59;19.80;99.90
16076;DHT22;8142;48.242;11.644;2023-08-01T07:09:25;19.90;99.90
16076;DHT22;8142;48.242;11.644;2023-08-01T07:11:51;20.00;99.90
16076;DHT22;8142;48.242;11.644;2023-08-01T07:14:17;20.10;99.90
16076;DHT22;8142;48.242;11.644;2023-08-01T07:16:43;20.10;99.90
16076;DHT22;8142;48.242;11.644;2023-08-01T07:19:09;20.20;99.90
16076;DHT22;8142;48.242;11.644;2023-08-01T07:21:34;20.20;99.90
16076;DHT22;8142;48.242;11.644;2023-08-01T07:24:00;20.20;99.90
16076;DHT22;8142;48.242;11.644;2023-08-01T07:26:26;20.30;99.90
16076;DHT22;8142;48.242;11.644;2023-08-01T07:28:54;20.20;99.90
16076;DHT22;8142;48.242;11.644;2023-08-01T07:31:20;20.30;99.90
16076;DHT22;8142;48.242;11.644;2023-08-01T07:33:46;20.30;99.90
16076;DHT22;8142;48.242;11.644;2023-08-01T07:36:11;20.30;99.90
16076;DHT22;8142;48.242;11.644;2023-08-01T07:38:37;20.40;99.90
16076;DHT22;8142;48.242;11.644;2023-08-01T07:41:04;20.40;99.90
16076;DHT22;8142;48.242;11.644;2023-08-01T07:43:30;20.50;99.90
16076;DHT22;8142;48.242;11.644;2023-08-01T07:45:57;20.50;99.90
16076;DHT22;8142;48.242;11.644;2023-08-01T07:48:23;20.60;99.90
16076;DHT22;8142;48.242;11.644;2023-08-01T07:50:49;20.60;99.90
16076;DHT22;8142;48.242;11.644;2023-08-01T07:53:15;20.70;99.90
16076;DHT22;8142;48.242;11.644;2023-08-01T07:55:41;20.70;99.90
16076;DHT22;8142;48.242;11.644;2023-08-01T07:58:07;20.80;99.90
16076;DHT22;8142;48.242;11.644;2023-08-01T08:00:35;20.80;99.90
16076;DHT22;8142;48.242;11.644;2023-08-01T08:03:01;20.90;99.90
16076;DHT22;8142;48.242;11.644;2023-08-01T08:05:27;21.00;99.90
16076;DHT22;8142;48.242;11.644;2023-08-01T08:07:52;21.10;99.90
16076;DHT22;8142;48.242;11.644;2023-08-01T08:10:18;21.10;99.90
16076;DHT22;8142;48.242;11.644;2023-08-01T08:12:44;21.10;99.90
16076;DHT22;8142;48.242;11.644;2023-08-01T08:15:10;21.10;99.90
16076;DHT22;8142;48.242;11.644;2023-08-01T08:17:36;21.00;99.90
16076;DHT22;8142;48.242;11.644;2023-08-01T08:20:03;21.00;99.90
16076;DHT22;8142;48.242;11.644;2023-08-01T08:22:29;21.00;99.90
16076;DHT22;8142;48.242;11.644;2023-08-01T08:24:55;21.00;99.90
16076;DHT22;8142;48.242;11.644;2023-08-01T08:27:21;21.00;99.90
16076;DHT22;8142;48.242;11.644;2023-08-01T08:29:47;21.00;99.90
16076;DHT22;8142;48.242;11.644;2023-08-01T08:32:13;21.00;99.90
16076;DHT22;8142;48.242;11.644;2023-08-01T08:34:38;21.00;99.90
16076;DHT22;8142;48.242;11.644;2023-08-01T08:37:05;21.00;99.90
16076;DHT22;8142;48.242;11.644;2023-08-01T08:39:31;20.90;99.90
16076;DHT22;8142;48.242;11.644;2023-08-01T08:41:57;21.00;99.90
16076;DHT22;8142;48.242;11.644;2023-08-01T08:44:23;21.00;99.90
16076;DHT22;8142;48.242;11.644;2023-08-01T08:46:58;21.00;99.90
16076;DHT22;8142;48.242;11.644;2023-08-01T08:49:26;21.10;99.90
16076;DHT22;8142;48.242;11.644;2023-08-01T08:51:52;21.00;99.90
16076;DHT22;8142;48.242;11.644;2023-08-01T08:54:19;21.10;99.90
16076;DHT22;8142;48.242;11.644;2023-08-01T08:56:46;21.10;99.90
16076;DHT22;8142;48.242;11.644;2023-08-01T08:59:12;21.20;99.90
16076;DHT22;8142;48.242;11.644;2023-08-01T09:01:40;21.20;99.90
16076;DHT22;8142;48.242;11.644;2023-08-01T09:04:06;21.20;99.90
16076;DHT22;8142;48.242;11.644;2023-08-01T09:06:37;21.20;99.90
16076;DHT22;8142;48.242;11.644;2023-08-01T09:09:11;21.20;99.90
16076;DHT22;8142;48.242;11.644;2023-08-01T09:11:48;21.20;99.90
16076;DHT22;8142;48.242;11.644;2023-08-01T09:14:15;21.20;99.90
16076;DHT22;8142;48.242;11.644;2023-08-01T09:16:41;21.30;99.90
16076;DHT22;8142;48.242;11.644;2023-08-01T09:19:08;21.20;99.90
16076;DHT22;8142;48.242;11.644;2023-08-01T09:21:35;21.20;99.90
16076;DHT22;8142;48.242;11.644;2023-08-01T09:24:11;21.20;99.90
16076;DHT22;8142;48.242;11.644;2023-08-01T09:26:37;21.20;99.90
16076;DHT22;8142;48.242;11.644;2023-08-01T09:29:03;21.30;99.90
16076;DHT22;8142;48.242;11.644;2023-08-01T09:31:34;21.30;99.90
16076;DHT22;8142;48.242;11.644;2023-08-01T09:34:02;21.30;99.90
16076;DHT22;8142;48.242;11.644;2023-08-01T09:36:32;21.40;99.90
16076;DHT22;8142;48.242;11.644;2023-08-01T09:39:00;21.40;99.90
16076;DHT22;8142;48.242;11.644;2023-08-01T09:41:26;21.40;99.90
16076;DHT22;8142;48.242;11.644;2023-08-01T09:43:52;21.50;99.90
16076;DHT22;8142;48.242;11.644;2023-08-01T09:46:18;21.50;99.90
16076;DHT22;8142;48.242;11.644;2023-08-01T09:48:43;21.40;99.90
16076;DHT22;8142;48.242;11.644;2023-08-01T09:51:13;21.40;99.90
16076;DHT22;8142;48.242;11.644;2023-08-01T09:54:05;21.40;99.90
16076;DHT22;8142;48.242;11.644;2023-08-01T09:56:32;21.50;99.90
16076;DHT22;8142;48.242;11.644;2023-08-01T09:58:59;21.50;99.90
16076;DHT22;8142;48.242;11.644;2023-08-01T10:01:33;21.50;99.90
16076;DHT22;8142;48.242;11.644;2023-08-01T10:03:59;21.50;99.90
16076;DHT22;8142;48.242;11.644;2023-08-01T10:06:29;21.50;99.90
16076;DHT22;8142;48.242;11.644;2023-08-01T10:08:58;21.50;99.90
16076;DHT22;8142;48.242;11.644;2023-08-01T10:11:24;21.50;99.90
16076;DHT22;8142;48.242;11.644;2023-08-01T10:13:50;21.50;99.90
16076;DHT22;8142;48.242;11.644;2023-08-01T10:16:16;21.50;99.90
16076;DHT22;8142;48.242;11.644;2023-08-01T10:18:43;21.40;99.90
16076;DHT22;8142;48.242;11.644;2023-08-01T10:21:14;21.30;99.90
16076;DHT22;8142;48.242;11.644;2023-08-01T10:23:40;21.30;99.90
16076;DHT22;8142;48.242;11.644;2023-08-01T10:26:07;21.20;99.90
16076;DHT22;8142;48.242;11.644;2023-08-01T10:28:38;21.10;99.90
16076;DHT22;8142;48.242;11.644;2023-08-01T10:33:34;20.80;99.90
16076;DHT22;8142;48.242;11.644;2023-08-01T10:36:00;20.60;99.90
16076;DHT22;8142;48.242;11.644;2023-08-01T10:38:26;20.40;99.90
16076;DHT22;8142;48.242;11.644;2023-08-01T10:40:52;20.30;99.90
16076;DHT22;8142;48.242;11.644;2023-08-01T10:43:24;20.20;99.90
16076;DHT22;8142;48.242;11.644;2023-08-01T10:46:03;20.00;99.90
16076;DHT22;8142;48.242;11.644;2023-08-01T10:48:29;19.90;99.90
16076;DHT22;8142;48.242;11.644;2023-08-01T10:50:56;19.90;99.90
16076;DHT22;8142;48.242;11.644;2023-08-01T10:53:25;19.80;99.90
16076;DHT22;8142;48.242;11.644;2023-08-01T10:55:51;19.80;99.90
16076;DHT22;8142;48.242;11.644;2023-08-01T10:58:17;19.90;99.90
16076;DHT22;8142;48.242;11.644;2023-08-01T11:00:43;19.90;99.90
16076;DHT22;8142;48.242;11.644;2023-08-01T11:03:09;19.90;99.90
16076;DHT22;8142;48.242;11.644;2023-08-01T11:05:35;20.00;99.90
16076;DHT22;8142;48.242;11.644;2023-08-01T11:08:02;20.00;99.90
16076;DHT22;8142;48.242;11.644;2023-08-01T11:10:31;20.10;99.90
16076;DHT22;8142;48.242;11.644;2023-08-01T11:12:58;20.20;99.90
16076;DHT22;8142;48.242;11.644;2023-08-01T11:15:24;20.30;99.90
16076;DHT22;8142;48.242;11.644;2023-08-01T11:17:52;20.40;99.90
16076;DHT22;8142;48.242;11.644;2023-08-01T11:20:20;20.50;99.90
16076;DHT22;8142;48.242;11.644;2023-08-01T11:22:58;20.50;99.90
16076;DHT22;8142;48.242;11.644;2023-08-01T11:25:42;20.50;99.90
16076;DHT22;8142;48.242;11.644;2023-08-01T11:28:14;20.60;99.90
16076;DHT22;8142;48.242;11.644;2023-08-01T11:30:40;20.60;99.90
16076;DHT22;8142;48.242;11.644;2023-08-01T11:33:21;20.50;99.90
16076;DHT22;8142;48.242;11.644;2023-08-01T11:35:55;20.60;99.90
16076;DHT22;8142;48.242;11.644;2023-08-01T11:38:26;20.60;99.90
16076;DHT22;8142;48.242;11.644;2023-08-01T11:41:03;20.60;99.90
16076;DHT22;8142;48.242;11.644;2023-08-01T11:43:42;20.60;99.90
16076;DHT22;8142;48.242;11.644;2023-08-01T11:46:09;20.60;99.90
16076;DHT22;8142;48.242;11.644;2023-08-01T11:48:35;20.60;99.90
16076;DHT22;8142;48.242;11.644;2023-08-01T11:51:02;20.60;99.90
16076;DHT22;8142;48.242;11.644;2023-08-01T11:53:28;20.50;99.90
16076;DHT22;8142;48.242;11.644;2023-08-01T11:55:55;20.60;99.90
16076;DHT22;8142;48.242;11.644;2023-08-01T11:58:29;20.60;99.90
16076;DHT22;8142;48.242;11.644;2023-08-01T12:01:06;20.60;99.90
16076;DHT22;8142;48.242;11.644;2023-08-01T12:03:46;20.50;99.90
16076;DHT22;8142;48.242;11.644;2023-08-01T12:06:12;20.40;99.90
16076;DHT22;8142;48.242;11.644;2023-08-01T12:08:43;20.30;99.90
16076;DHT22;8142;48.242;11.644;2023-08-01T12:11:26;20.20;99.90
16076;DHT22;8142;48.242;11.644;2023-08-01T12:14:11;20.10;99.90
16076;DHT22;8142;48.242;11.644;2023-08-01T12:16:38;20.10;99.90
16076;DHT22;8142;48.242;11.644;2023-08-01T12:19:04;20.00;99.90
16076;DHT22;8142;48.242;11.644;2023-08-01T12:21:32;20.00;99.90
16076;DHT22;8142;48.242;11.644;2023-08-01T12:23:59;20.10;99.90
16076;DHT22;8142;48.242;11.644;2023-08-01T12:26:25;20.20;99.90
16076;DHT22;8142;48.242;11.644;2023-08-01T12:28:51;20.40;99.90
16076;DHT22;8142;48.242;11.644;2023-08-01T12:31:18;20.40;99.90
16076;DHT22;8142;48.242;11.644;2023-08-01T12:33:44;20.50;99.90
16076;DHT22;8142;48.242;11.644;2023-08-01T12:36:11;20.60;99.90
16076;DHT22;8142;48.242;11.644;2023-08-01T12:38:37;20.70;99.90
16076;DHT22;8142;48.242;11.644;2023-08-01T12:41:03;20.80;99.90
16076;DHT22;8142;48.242;11.644;2023-08-01T12:43:29;21.00;99.90
16076;DHT22;8142;48.242;11.644;2023-08-01T12:45:55;21.10;99.90
16076;DHT22;8142;48.242;11.644;2023-08-01T12:48:27;21.10;99.90
16076;DHT22;8142;48.242;11.644;2023-08-01T12:50:53;21.20;99.90
16076;DHT22;8142;48.242;11.644;2023-08-01T12:53:23;21.20;99.90
16076;DHT22;8142;48.242;11.644;2023-08-01T12:55:50;21.30;99.90
16076;DHT22;8142;48.242;11.644;2023-08-01T12:58:16;21.30;99.90
16076;DHT22;8142;48.242;11.644;2023-08-01T13:00:43;21.40;99.90
16076;DHT22;8142;48.242;11.644;2023-08-01T13:03:10;21.50;99.90
16076;DHT22;8142;48.242;11.644;2023-08-01T13:05:38;21.60;99.90
16076;DHT22;8142;48.242;11.644;2023-08-01T13:08:05;21.60;99.90
16076;DHT22;8142;48.242;11.644;2023-08-01T13:10:34;21.70;99.90
16076;DHT22;8142;48.242;11.644;2023-08-01T13:13:01;21.70;99.90
16076;DHT22;8142;48.242;11.644;2023-08-01T13:15:28;21.80;99.90
16076;DHT22;8142;48.242;11.644;2023-08-01T13:17:54;21.70;99.90
16076;DHT22;8142;48.242;11.644;2023-08-01T13:20:20;21.80;99.90
16076;DHT22;8142;48.242;11.644;2023-08-01T13:22:48;21.80;99.90
16076;DHT22;8142;48.242;11.644;2023-08-01T13:25:14;21.70;99.90
16076;DHT22;8142;48.242;11.644;2023-08-01T13:27:40;21.80;99.90
16076;DHT22;8142;48.242;11.644;2023-08-01T13:30:06;21.80;99.90
16076;DHT22;8142;48.242;11.644;2023-08-01T13:32:33;21.70;99.90
16076;DHT22;8142;48.242;11.644;2023-08-01T13:34:59;21.70;99.90
16076;DHT22;8142;48.242;11.644;2023-08-01T13:37:26;21.80;99.90
16076;DHT22;8142;48.242;11.644;2023-08-01T13:39:52;21.70;99.90
16076;DHT22;8142;48.242;11.644;2023-08-01T13:42:18;21.80;99.90
16076;DHT22;8142;48.242;11.644;2023-08-01T13:44:44;21.70;99.90
16076;DHT22;8142;48.242;11.644;2023-08-01T13:47:10;21.80;99.90
16076;DHT22;8142;48.242;11.644;2023-08-01T13:49:36;21.90;99.90
16076;DHT22;8142;48.242;11.644;2023-08-01T13:52:03;21.90;99.90
16076;DHT22;8142;48.242;11.644;2023-08-01T13:54:29;21.90;99.90
16076;DHT22;8142;48.242;11.644;2023-08-01T13:56:55;22.00;99.90
16076;DHT22;8142;48.242;11.644;2023-08-01T13:59:20;22.00;99.90
16076;DHT22;8142;48.242;11.644;2023-08-01T14:01:46;22.00;99.90
16076;DHT22;8142;48.242;11.644;2023-08-01T14:04:12;22.00;99.90
16076;DHT22;8142;48.242;11.644;2023-08-01T14:06:42;22.00;99.90
16076;DHT22;8142;48.242;11.644;2023-08-01T14:09:08;22.10;99.90
16076;DHT22;8142;48.242;11.644;2023-08-01T14:11:35;22.00;99.90
16076;DHT22;8142;48.242;11.644;2023-08-01T14:14:01;21.80;99.90
16076;DHT22;8142;48.242;11.644;2023-08-01T14:16:27;21.70;99.90
16076;DHT22;8142;48.242;11.644;2023-08-01T14:18:53;21.60;99.90
16076;DHT22;8142;48.242;11.644;2023-08-01T14:21:19;21.40;99.90
16076;DHT22;8142;48.242;11.644;2023-08-01T14:23:45;21.30;99.90
16076;DHT22;8142;48.242;11.644;2023-08-01T14:26:11;21.20;99.90
16076;DHT22;8142;48.242;11.644;2023-08-01T14:28:37;21.00;99.90
16076;DHT22;8142;48.242;11.644;2023-08-01T14:31:03;20.90;99.90
16076;DHT22;8142;48.242;11.644;2023-08-01T14:33:30;20.90;99.90
16076;DHT22;8142;48.242;11.644;2023-08-01T14:35:56;20.90;99.90
16076;DHT22;8142;48.242;11.644;2023-08-01T14:38:25;20.90;99.90
16076;DHT22;8142;48.242;11.644;2023-08-01T14:40:53;21.00;99.90
16076;DHT22;8142;48.242;11.644;2023-08-01T14:43:19;21.00;99.90
16076;DHT22;8142;48.242;11.644;2023-08-01T14:45:45;21.10;99.90
16076;DHT22;8142;48.242;11.644;2023-08-01T14:48:11;21.10;99.90
16076;DHT22;8142;48.242;11.644;2023-08-01T14:50:38;21.20;99.90
16076;DHT22;8142;48.242;11.644;2023-08-01T14:53:04;21.20;99.90
16076;DHT22;8142;48.242;11.644;2023-08-01T14:55:32;21.40;99.90
16076;DHT22;8142;48.242;11.644;2023-08-01T14:57:58;21.30;99.90
16076;DHT22;8142;48.242;11.644;2023-08-01T15:00:24;21.20;99.90
16076;DHT22;8142;48.242;11.644;2023-08-01T15:02:51;21.20;99.90
16076;DHT22;8142;48.242;11.644;2023-08-01T15:05:17;21.00;99.90
16076;DHT22;8142;48.242;11.644;2023-08-01T15:07:43;20.90;99.90
16076;DHT22;8142;48.242;11.644;2023-08-01T15:10:09;20.70;99.90
16076;DHT22;8142;48.242;11.644;2023-08-01T15:12:36;20.60;99.90
16076;DHT22;8142;48.242;11.644;2023-08-01T15:15:01;20.40;99.90
16076;DHT22;8142;48.242;11.644;2023-08-01T15:17:28;20.40;99.90
16076;DHT22;8142;48.242;11.644;2023-08-01T15:19:54;20.20;99.90
16076;DHT22;8142;48.242;11.644;2023-08-01T15:22:20;20.20;99.90
16076;DHT22;8142;48.242;11.644;2023-08-01T15:24:46;20.00;99.90
16076;DHT22;8142;48.242;11.644;2023-08-01T15:27:13;20.10;99.90
16076;DHT22;8142;48.242;11.644;2023-08-01T15:29:39;19.80;99.90